createdAt,value
2023-04-06T00:01:34.518Z,9.00
2023-04-06T00:04:02.256Z,9.30
2023-04-06T00:06:30.193Z,9.20
2023-04-06T00:08:57.750Z,9.17
2023-04-06T00:11:25.449Z,9.13
2023-04-06T00:13:53.321Z,9.00
2023-04-06T00:16:22.465Z,9.87
2023-04-06T00:18:51.995Z,10.33
2023-04-06T00:21:19.429Z,12.00
2023-04-06T00:23:46.814Z,12.47
2023-04-06T00:26:14.126Z,12.93
2023-04-06T00:28:41.462Z,13.20
2023-04-06T00:31:08.909Z,12.03
2023-04-06T00:33:36.528Z,12.10
2023-04-06T00:36:04.299Z,12.23
2023-04-06T00:38:32.226Z,12.17
2023-04-06T00:41:00.029Z,10.97
2023-04-06T00:43:28.336Z,11.43
2023-04-06T00:45:56.404Z,10.47
2023-04-06T00:48:24.061Z,10.77
2023-04-06T00:50:51.556Z,10.30
2023-04-06T00:53:19.451Z,10.60
2023-04-06T00:55:47.396Z,10.73
2023-04-06T00:58:15.000Z,9.70
2023-04-06T01:00:42.857Z,10.30
2023-04-06T01:03:10.623Z,9.70
2023-04-06T01:05:41.744Z,9.93
2023-04-06T01:08:10.377Z,9.63
2023-04-06T01:10:38.119Z,11.43
2023-04-06T01:13:06.275Z,10.10
2023-04-06T01:15:35.941Z,11.17
2023-04-06T01:18:04.131Z,11.50
2023-04-06T01:20:32.035Z,13.10
2023-04-06T01:22:59.922Z,11.77
2023-04-06T01:25:27.543Z,11.73
2023-04-06T01:27:55.443Z,11.13
2023-04-06T01:30:23.102Z,10.73
2023-04-06T01:32:50.769Z,10.47
2023-04-06T01:35:20.199Z,10.97
2023-04-06T01:37:47.785Z,10.63
2023-04-06T01:40:15.582Z,11.17
2023-04-06T01:42:43.829Z,11.17
2023-04-06T01:45:11.743Z,11.30
2023-04-06T01:47:39.358Z,12.60
2023-04-06T01:50:07.688Z,12.60
2023-04-06T01:52:35.340Z,11.97
2023-04-06T01:55:03.511Z,12.13
2023-04-06T01:57:31.389Z,12.73
2023-04-06T01:59:59.079Z,14.27
2023-04-06T02:02:26.935Z,15.67
2023-04-06T02:04:54.732Z,14.10
2023-04-06T02:07:22.480Z,12.60
2023-04-06T02:09:50.325Z,13.17
2023-04-06T02:12:17.803Z,11.13
2023-04-06T02:14:45.428Z,10.63
2023-04-06T02:17:13.095Z,11.87
2023-04-06T02:19:40.417Z,12.00
2023-04-06T02:22:08.299Z,13.23
2023-04-06T02:24:36.738Z,13.57
2023-04-06T02:27:04.270Z,12.80
2023-04-06T02:29:32.339Z,10.50
2023-04-06T02:32:00.205Z,11.33
2023-04-06T02:34:28.358Z,11.47
2023-04-06T02:36:55.993Z,11.17
2023-04-06T02:39:23.964Z,11.67
2023-04-06T02:41:51.940Z,11.87
2023-04-06T02:44:19.715Z,12.87
2023-04-06T02:46:47.273Z,12.83
2023-04-06T02:49:15.098Z,13.33
2023-04-06T02:51:42.442Z,13.97
2023-04-06T02:54:10.293Z,13.10
2023-04-06T02:56:38.083Z,13.37
2023-04-06T02:59:05.872Z,13.53
2023-04-06T03:01:33.393Z,14.03
2023-04-06T03:04:01.191Z,12.73
2023-04-06T03:06:29.377Z,13.43
2023-04-06T03:08:57.111Z,12.80
2023-04-06T03:11:25.088Z,12.40
2023-04-06T03:13:52.842Z,13.33
2023-04-06T03:16:20.682Z,14.40
2023-04-06T03:18:48.585Z,13.53
2023-04-06T03:21:20.909Z,14.50
2023-04-06T03:23:51.042Z,14.57
2023-04-06T03:26:18.911Z,14.20
2023-04-06T03:28:46.750Z,15.27
2023-04-06T03:31:14.360Z,13.93
2023-04-06T03:33:42.022Z,12.40
2023-04-06T03:36:09.937Z,12.33
2023-04-06T03:38:39.611Z,12.77
2023-04-06T03:41:08.659Z,12.77
2023-04-06T03:43:36.250Z,13.00
2023-04-06T03:46:04.270Z,12.40
2023-04-06T03:48:32.372Z,12.00
2023-04-06T03:50:59.939Z,12.30
2023-04-06T03:53:28.322Z,11.97
2023-04-06T03:55:56.011Z,11.97
2023-04-06T03:58:23.627Z,12.53
2023-04-06T04:00:51.145Z,11.17
2023-04-06T04:03:18.835Z,11.50
2023-04-06T04:05:47.422Z,11.23
2023-04-06T04:08:14.869Z,10.57
2023-04-06T04:10:42.725Z,11.00
2023-04-06T04:13:10.635Z,10.80
2023-04-06T04:15:38.028Z,11.27
2023-04-06T04:18:05.811Z,10.80
2023-04-06T04:20:33.957Z,10.67
2023-04-06T04:23:01.914Z,11.30
2023-04-06T04:25:29.256Z,11.67
2023-04-06T04:27:56.952Z,11.47
2023-04-06T04:30:25.020Z,13.10
2023-04-06T04:32:52.730Z,12.90
2023-04-06T04:35:20.749Z,12.60
2023-04-06T04:37:48.318Z,12.97
2023-04-06T04:40:17.153Z,13.77
2023-04-06T04:42:44.670Z,12.37
2023-04-06T04:45:13.057Z,13.13
2023-04-06T04:47:40.599Z,12.00
2023-04-06T04:50:11.732Z,14.57
2023-04-06T04:52:39.705Z,13.87
2023-04-06T04:55:07.574Z,14.30
2023-04-06T04:57:35.093Z,12.40
2023-04-06T05:00:04.028Z,13.30
2023-04-06T05:02:32.123Z,11.73
2023-04-06T05:04:59.943Z,12.67
2023-04-06T05:07:27.512Z,11.83
2023-04-06T05:09:55.146Z,10.77
2023-04-06T05:12:23.006Z,11.63
2023-04-06T05:14:50.344Z,12.97
2023-04-06T05:17:17.940Z,12.50
2023-04-06T05:19:45.968Z,13.73
2023-04-06T05:22:15.507Z,13.30
2023-04-06T05:24:42.989Z,14.80
2023-04-06T05:27:11.198Z,14.97
2023-04-06T05:29:38.752Z,14.97
2023-04-06T05:32:07.559Z,15.97
2023-04-06T05:34:35.169Z,16.10
2023-04-06T05:37:02.925Z,15.77
2023-04-06T05:39:31.635Z,18.47
2023-04-06T05:41:59.086Z,19.17
2023-04-06T05:44:26.618Z,20.20
2023-04-06T05:46:54.423Z,20.20
2023-04-06T05:49:22.068Z,19.17
2023-04-06T05:51:49.848Z,19.70
2023-04-06T05:54:17.672Z,21.13
2023-04-06T05:56:45.460Z,20.73
2023-04-06T05:59:13.205Z,21.03
2023-04-06T06:01:41.148Z,20.87
2023-04-06T06:04:08.699Z,22.20
2023-04-06T06:06:37.038Z,25.53
2023-04-06T06:09:04.788Z,25.93
2023-04-06T06:11:32.693Z,25.13
2023-04-06T06:14:00.382Z,21.73
2023-04-06T06:16:27.702Z,16.93
2023-04-06T06:18:55.301Z,17.97
2023-04-06T06:21:22.968Z,17.07
2023-04-06T06:23:51.582Z,15.97
2023-04-06T06:26:19.061Z,14.30
2023-04-06T06:28:46.619Z,14.27
2023-04-06T06:31:14.172Z,14.23
2023-04-06T06:33:42.979Z,13.23
2023-04-06T06:36:10.665Z,13.53
2023-04-06T06:38:39.246Z,13.13
2023-04-06T06:41:06.696Z,12.47
2023-04-06T06:43:34.446Z,12.53
2023-04-06T06:46:02.155Z,12.20
2023-04-06T06:48:29.707Z,12.33
2023-04-06T06:50:57.416Z,13.10
2023-04-06T06:53:25.771Z,13.50
2023-04-06T06:55:53.186Z,11.60
2023-04-06T06:58:23.980Z,10.77
2023-04-06T07:00:51.512Z,11.93
2023-04-06T07:03:18.874Z,12.33
2023-04-06T07:05:54.300Z,11.57
2023-04-06T07:08:25.666Z,10.43
2023-04-06T07:10:54.081Z,9.53
2023-04-06T07:13:25.191Z,9.90
2023-04-06T07:15:52.904Z,9.07
2023-04-06T07:18:21.673Z,9.23
2023-04-06T07:20:49.233Z,9.20
2023-04-06T07:23:16.576Z,9.33
2023-04-06T07:25:44.326Z,8.67
2023-04-06T07:28:11.991Z,8.97
2023-04-06T07:30:39.622Z,8.70
2023-04-06T07:33:07.449Z,9.07
2023-04-06T07:35:36.480Z,9.87
2023-04-06T07:38:03.972Z,8.40
2023-04-06T07:40:32.974Z,8.43
2023-04-06T07:43:00.763Z,8.40
2023-04-06T07:45:28.124Z,8.07
2023-04-06T07:47:55.698Z,7.97
2023-04-06T07:50:24.498Z,8.10
2023-04-06T07:52:51.890Z,6.80
2023-04-06T07:55:19.682Z,7.63
2023-04-06T07:57:47.638Z,6.97
2023-04-06T08:00:15.520Z,7.60
2023-04-06T08:02:43.444Z,7.23
2023-04-06T08:05:11.410Z,6.57
2023-04-06T08:07:39.382Z,6.53
2023-04-06T08:10:07.324Z,6.57
2023-04-06T08:12:35.600Z,6.33
2023-04-06T08:15:03.741Z,5.93
2023-04-06T08:17:32.318Z,5.93
2023-04-06T08:20:00.035Z,5.80
2023-04-06T08:22:27.457Z,5.57
2023-04-06T08:24:55.227Z,6.20
2023-04-06T08:27:22.874Z,4.90
2023-04-06T08:29:52.350Z,4.90
2023-04-06T08:32:20.365Z,5.57
2023-04-06T08:34:48.295Z,4.00
2023-04-06T08:37:15.785Z,3.93
2023-04-06T08:39:43.466Z,4.13
2023-04-06T08:42:20.764Z,3.50
2023-04-06T08:44:48.415Z,4.43
2023-04-06T08:47:15.817Z,4.00
2023-04-06T08:49:44.363Z,4.30
2023-04-06T08:52:12.640Z,3.97
2023-04-06T08:54:40.475Z,3.93
2023-04-06T08:57:08.890Z,4.20
2023-04-06T08:59:37.657Z,4.40
2023-04-06T09:02:09.137Z,4.80
2023-04-06T09:04:37.800Z,4.40
2023-04-06T09:07:05.155Z,4.30
2023-04-06T09:09:32.705Z,4.77
2023-04-06T09:12:06.736Z,4.63
2023-04-06T09:14:41.243Z,4.83
2023-04-06T09:17:08.597Z,4.27
2023-04-06T09:19:35.953Z,4.43
2023-04-06T09:22:08.239Z,4.87
2023-04-06T09:24:44.895Z,4.87
2023-04-06T09:27:12.565Z,4.73
2023-04-06T09:29:39.901Z,4.80
2023-04-06T09:32:08.339Z,4.83
2023-04-06T09:34:35.927Z,5.10
2023-04-06T09:37:13.799Z,4.63
2023-04-06T09:39:41.344Z,5.27
2023-04-06T09:42:08.739Z,4.87
2023-04-06T09:44:36.236Z,4.80
2023-04-06T09:47:06.095Z,5.27
2023-04-06T09:49:34.585Z,5.17
2023-04-06T09:52:03.611Z,5.90
2023-04-06T09:54:31.958Z,4.90
2023-04-06T09:57:15.799Z,5.43
2023-04-06T09:59:46.731Z,6.93
2023-04-06T10:02:20.992Z,4.80
2023-04-06T10:04:55.711Z,4.93
2023-04-06T10:07:23.374Z,5.07
2023-04-06T10:09:51.334Z,4.83
2023-04-06T10:12:19.057Z,4.83
2023-04-06T10:14:46.722Z,4.80
2023-04-06T10:17:14.245Z,5.40
2023-04-06T10:19:46.534Z,4.60
2023-04-06T10:22:17.846Z,4.83
2023-04-06T10:24:45.184Z,5.10
2023-04-06T10:27:12.526Z,4.90
2023-04-06T10:29:47.647Z,5.10
2023-04-06T10:32:15.001Z,4.90
2023-04-06T10:34:42.422Z,5.00
2023-04-06T10:37:14.086Z,5.07
2023-04-06T10:39:48.258Z,5.37
2023-04-06T10:42:15.794Z,5.37
2023-04-06T10:44:46.818Z,5.60
2023-04-06T10:47:20.000Z,4.47
2023-04-06T10:49:47.560Z,4.37
2023-04-06T10:52:15.140Z,4.67
2023-04-06T10:54:48.342Z,5.20
2023-04-06T10:57:17.175Z,4.90
2023-04-06T10:59:44.878Z,4.87
2023-04-06T11:02:22.288Z,5.50
2023-04-06T11:04:57.302Z,4.20
2023-04-06T11:07:26.190Z,4.83
2023-04-06T11:10:04.805Z,4.83
2023-04-06T11:12:40.402Z,4.70
2023-04-06T11:15:08.778Z,4.60
2023-04-06T11:17:37.146Z,5.00
2023-04-06T11:20:05.610Z,5.00
2023-04-06T11:22:33.230Z,5.00
2023-04-06T11:25:07.908Z,5.10
2023-04-06T11:27:36.061Z,5.40
2023-04-06T11:30:03.932Z,4.40
2023-04-06T11:32:31.348Z,5.27
2023-04-06T11:35:00.774Z,5.13
2023-04-06T11:37:29.215Z,4.60
2023-04-06T11:39:58.203Z,4.87
2023-04-06T11:42:26.451Z,5.00
2023-04-06T11:44:55.438Z,4.63
2023-04-06T11:47:31.431Z,5.10
2023-04-06T11:50:07.117Z,4.97
2023-04-06T11:52:34.497Z,5.03
2023-04-06T11:55:12.346Z,5.00
2023-04-06T11:57:39.914Z,4.30
2023-04-06T12:00:08.016Z,4.50
2023-04-06T12:02:35.718Z,4.60
2023-04-06T12:05:03.089Z,4.80
2023-04-06T12:07:31.502Z,5.30
2023-04-06T12:09:58.862Z,5.57
2023-04-06T12:12:26.854Z,5.17
2023-04-06T12:14:54.294Z,5.27
2023-04-06T12:17:21.877Z,5.17
2023-04-06T12:19:49.241Z,4.90
2023-04-06T12:22:16.822Z,4.60
2023-04-06T12:24:44.381Z,5.13
2023-04-06T12:27:12.542Z,4.97
2023-04-06T12:29:40.205Z,4.67
2023-04-06T12:32:07.942Z,4.90
2023-04-06T12:34:35.291Z,4.77
2023-04-06T12:37:02.764Z,5.10
2023-04-06T12:39:31.192Z,4.63
2023-04-06T12:41:58.753Z,5.40
2023-04-06T12:44:27.127Z,5.80
2023-04-06T12:46:54.954Z,13.90
2023-04-06T12:49:23.044Z,12.47
2023-04-06T12:51:51.293Z,4.83
2023-04-06T12:54:18.842Z,4.37
2023-04-06T12:56:46.577Z,4.80
2023-04-06T12:59:13.985Z,4.47
2023-04-06T13:01:41.355Z,5.00
2023-04-06T13:04:08.899Z,5.10
2023-04-06T13:06:36.337Z,4.37
2023-04-06T13:09:04.204Z,5.23
2023-04-06T13:11:31.593Z,4.63
2023-04-06T13:13:59.075Z,4.67
2023-04-06T13:16:26.470Z,4.90
2023-04-06T13:18:53.742Z,4.67
2023-04-06T13:21:21.993Z,7.40
2023-04-06T13:23:49.384Z,5.27
2023-04-06T13:26:17.700Z,5.33
2023-04-06T13:28:45.168Z,4.30
2023-04-06T13:31:12.787Z,5.37
2023-04-06T13:33:41.908Z,4.20
2023-04-06T13:36:09.513Z,4.23
2023-04-06T13:38:39.980Z,4.10
2023-04-06T13:41:07.593Z,4.53
2023-04-06T13:43:34.965Z,4.10
2023-04-06T13:46:02.571Z,4.22
2023-04-06T13:48:29.943Z,4.10
2023-04-06T13:50:57.324Z,3.95
2023-04-06T13:53:24.622Z,4.78
2023-04-06T13:55:55.683Z,4.50
2023-04-06T13:58:23.007Z,4.00
2023-04-06T14:00:50.820Z,4.25
2023-04-06T14:03:18.324Z,3.75
2023-04-06T14:05:46.773Z,4.07
2023-04-06T14:08:14.344Z,3.53
2023-04-06T14:10:43.171Z,3.47
2023-04-06T14:13:10.783Z,4.00
2023-04-06T14:15:38.424Z,4.18
2023-04-06T14:18:05.916Z,3.80
2023-04-06T14:20:33.888Z,4.85
2023-04-06T14:23:02.467Z,4.23
2023-04-06T14:25:32.159Z,7.60
2023-04-06T14:27:59.800Z,5.20
2023-04-06T14:30:27.135Z,3.87
2023-04-06T14:32:54.530Z,3.73
2023-04-06T14:35:21.908Z,5.77
2023-04-06T14:37:49.233Z,4.27
2023-04-06T14:40:16.790Z,4.20
2023-04-06T14:42:44.176Z,3.50
2023-04-06T14:45:11.652Z,4.17
2023-04-06T14:47:38.960Z,4.13
2023-04-06T14:50:06.740Z,3.80
2023-04-06T14:52:34.026Z,4.03
2023-04-06T14:55:01.497Z,4.27
2023-04-06T14:57:29.033Z,4.27
2023-04-06T14:59:56.436Z,4.10
2023-04-06T15:02:24.036Z,4.67
2023-04-06T15:04:53.290Z,4.73
2023-04-06T15:07:21.488Z,4.90
2023-04-06T15:09:48.808Z,3.87
2023-04-06T15:12:16.230Z,4.30
2023-04-06T15:14:43.625Z,4.13
2023-04-06T15:17:11.119Z,4.47
2023-04-06T15:19:38.461Z,6.43
2023-04-06T15:22:05.699Z,4.40
2023-04-06T15:24:33.254Z,4.13
2023-04-06T15:27:00.878Z,4.17
2023-04-06T15:29:28.158Z,3.73
2023-04-06T15:31:55.517Z,3.90
2023-04-06T15:34:22.804Z,4.00
2023-04-06T15:36:50.314Z,3.90
2023-04-06T15:39:17.621Z,3.80
2023-04-06T15:41:44.959Z,3.33
2023-04-06T15:44:12.353Z,3.43
2023-04-06T15:46:39.769Z,3.30
2023-04-06T15:49:07.034Z,3.77
2023-04-06T15:51:34.428Z,3.10
2023-04-06T15:54:01.683Z,3.50
2023-04-06T15:56:29.482Z,4.27
2023-04-06T15:58:57.027Z,3.70
2023-04-06T16:01:24.383Z,4.30
2023-04-06T16:03:51.756Z,3.93
2023-04-06T16:06:19.131Z,7.87
2023-04-06T16:08:46.741Z,4.90
2023-04-06T16:11:14.271Z,3.53
2023-04-06T16:13:43.153Z,3.53
2023-04-06T16:16:12.655Z,3.70
2023-04-06T16:18:40.086Z,4.60
2023-04-06T16:21:07.477Z,9.07
2023-04-06T16:23:34.968Z,6.80
2023-04-06T16:26:02.535Z,8.37
2023-04-06T16:28:29.844Z,6.03
2023-04-06T16:30:58.057Z,4.20
2023-04-06T16:33:25.636Z,4.13
2023-04-06T16:35:54.130Z,4.47
2023-04-06T16:38:23.805Z,3.40
2023-04-06T16:40:59.912Z,3.37
2023-04-06T16:43:27.509Z,5.33
2023-04-06T16:45:54.967Z,6.57
2023-04-06T16:48:22.876Z,6.80
2023-04-06T16:50:50.713Z,5.60
2023-04-06T16:53:17.964Z,4.87
2023-04-06T16:55:45.486Z,4.30
2023-04-06T16:58:13.115Z,4.57
2023-04-06T17:00:41.101Z,4.20
2023-04-06T17:03:08.654Z,5.83
2023-04-06T17:05:36.444Z,3.77
2023-04-06T17:08:03.990Z,3.80
2023-04-06T17:10:34.193Z,5.40
2023-04-06T17:13:08.641Z,3.97
2023-04-06T17:15:36.392Z,5.43
2023-04-06T17:18:04.331Z,11.90
2023-04-06T17:20:31.745Z,10.37
2023-04-06T17:22:58.988Z,6.60
2023-04-06T17:25:26.237Z,5.90
2023-04-06T17:27:53.548Z,4.30
2023-04-06T17:30:21.526Z,4.00
2023-04-06T17:32:48.887Z,3.73
2023-04-06T17:35:16.281Z,4.00
2023-04-06T17:37:45.493Z,3.90
2023-04-06T17:40:12.901Z,6.43
2023-04-06T17:42:40.145Z,4.10
2023-04-06T17:45:08.065Z,5.03
2023-04-06T17:47:35.527Z,3.87
2023-04-06T17:50:03.117Z,4.60
2023-04-06T17:52:31.064Z,9.53
2023-04-06T17:54:59.608Z,4.33
2023-04-06T17:57:27.114Z,4.00
2023-04-06T17:59:54.606Z,3.20
2023-04-06T18:02:22.629Z,3.33
2023-04-06T18:04:56.370Z,3.60
2023-04-06T18:07:23.731Z,3.20
2023-04-06T18:09:51.680Z,3.03
2023-04-06T18:12:19.049Z,3.20
2023-04-06T18:14:46.812Z,3.07
2023-04-06T18:17:14.139Z,3.30
2023-04-06T18:19:41.749Z,3.23
2023-04-06T18:22:09.081Z,2.93
2023-04-06T18:24:42.715Z,2.83
2023-04-06T18:27:11.476Z,3.13
2023-04-06T18:29:39.324Z,2.87
2023-04-06T18:32:07.292Z,3.00
2023-04-06T18:34:35.014Z,3.60
2023-04-06T18:37:03.056Z,5.03
2023-04-06T18:39:30.566Z,5.93
2023-04-06T18:41:58.746Z,4.03
2023-04-06T18:44:26.611Z,3.00
2023-04-06T18:46:55.456Z,3.00
2023-04-06T18:49:23.157Z,3.13
2023-04-06T18:51:50.985Z,3.00
2023-04-06T18:54:18.362Z,3.07
2023-04-06T18:56:45.790Z,3.00
2023-04-06T18:59:14.217Z,3.50
2023-04-06T19:01:45.074Z,3.03
2023-04-06T19:04:12.907Z,3.00
2023-04-06T19:06:40.378Z,3.50
2023-04-06T19:09:07.762Z,3.50
2023-04-06T19:11:35.848Z,3.70
2023-04-06T19:14:03.132Z,3.47
2023-04-06T19:16:30.477Z,3.93
2023-04-06T19:19:00.039Z,3.53
2023-04-06T19:21:28.099Z,3.97
2023-04-06T19:23:56.205Z,4.30
2023-04-06T19:26:27.189Z,3.97
2023-04-06T19:28:54.573Z,3.33
2023-04-06T19:31:22.180Z,3.50
2023-04-06T19:33:49.687Z,3.50
2023-04-06T19:36:17.285Z,6.73
2023-04-06T19:38:44.701Z,6.30
2023-04-06T19:41:12.076Z,3.30
2023-04-06T19:43:39.563Z,6.87
2023-04-06T19:46:08.934Z,5.60
2023-04-06T19:48:36.377Z,3.90
2023-04-06T19:51:03.777Z,3.80
2023-04-06T19:53:31.230Z,4.90
2023-04-06T19:55:58.791Z,21.23
2023-04-06T19:58:26.106Z,11.53
2023-04-06T20:00:53.481Z,6.90
2023-04-06T20:03:20.941Z,5.30
2023-04-06T20:05:48.504Z,4.60
2023-04-06T20:08:16.113Z,4.00
2023-04-06T20:10:43.515Z,6.67
2023-04-06T20:13:11.064Z,24.77
2023-04-06T20:15:38.480Z,12.20
2023-04-06T20:18:06.642Z,8.03
2023-04-06T20:20:34.126Z,4.60
2023-04-06T20:23:01.393Z,3.50
2023-04-06T20:25:28.962Z,3.50
2023-04-06T20:27:56.735Z,3.13
2023-04-06T20:30:24.141Z,2.70
2023-04-06T20:32:51.583Z,2.50
2023-04-06T20:35:19.052Z,3.13
2023-04-06T20:37:46.313Z,3.40
2023-04-06T20:40:13.957Z,3.47
2023-04-06T20:42:41.891Z,3.70
2023-04-06T20:45:09.735Z,4.90
2023-04-06T20:47:37.163Z,3.70
2023-04-06T20:50:04.923Z,3.57
2023-04-06T20:52:32.321Z,3.30
2023-04-06T20:55:00.399Z,3.63
2023-04-06T20:57:28.337Z,4.13
2023-04-06T20:59:55.988Z,3.50
2023-04-06T21:02:23.509Z,3.50
2023-04-06T21:04:51.354Z,3.33
2023-04-06T21:07:18.740Z,3.87
2023-04-06T21:09:46.119Z,4.60
2023-04-06T21:12:13.552Z,4.37
2023-04-06T21:14:41.519Z,5.10
2023-04-06T21:17:08.853Z,9.83
2023-04-06T21:19:36.186Z,3.73
2023-04-06T21:22:03.590Z,4.90
2023-04-06T21:24:31.217Z,3.70
2023-04-06T21:26:58.698Z,4.20
2023-04-06T21:29:26.152Z,3.60
2023-04-06T21:31:55.692Z,4.10
2023-04-06T21:34:23.424Z,5.87
2023-04-06T21:36:50.922Z,5.03
2023-04-06T21:39:18.418Z,4.03
2023-04-06T21:41:45.998Z,4.97
2023-04-06T21:44:13.277Z,4.23
2023-04-06T21:46:40.742Z,4.27
2023-04-06T21:49:08.251Z,6.30
2023-04-06T21:51:35.598Z,6.47
2023-04-06T21:54:02.981Z,5.93
2023-04-06T21:56:30.470Z,5.50
2023-04-06T21:58:58.233Z,5.27
2023-04-06T22:01:25.798Z,5.50
2023-04-06T22:03:55.868Z,5.57
2023-04-06T22:06:25.769Z,5.63
2023-04-06T22:08:53.274Z,5.33
2023-04-06T22:11:21.224Z,5.77
2023-04-06T22:13:48.641Z,5.93
2023-04-06T22:16:18.660Z,5.73
2023-04-06T22:18:46.214Z,5.93
2023-04-06T22:21:13.634Z,5.93
2023-04-06T22:24:15.101Z,5.93
2023-04-06T22:26:29.843Z,5.57
2023-04-06T22:28:57.612Z,6.03
2023-04-06T22:31:25.001Z,5.87
2023-04-06T22:33:52.342Z,6.27
2023-04-06T22:36:19.632Z,6.57
2023-04-06T22:38:49.256Z,6.20
2023-04-06T22:41:16.650Z,6.17
2023-04-06T22:43:44.039Z,6.97
2023-04-06T22:46:11.377Z,6.73
2023-04-06T22:48:38.858Z,7.67
2023-04-06T22:51:06.378Z,9.60
2023-04-06T22:53:33.803Z,11.73
2023-04-06T22:56:01.589Z,7.93
2023-04-06T22:58:29.136Z,7.37
2023-04-06T23:00:56.655Z,7.53
2023-04-06T23:03:24.122Z,7.53
2023-04-06T23:05:51.783Z,8.97
2023-04-06T23:08:19.354Z,7.63
2023-04-06T23:10:46.728Z,7.33
2023-04-06T23:13:14.215Z,9.07
2023-04-06T23:15:41.600Z,9.97
2023-04-06T23:18:09.068Z,9.67
2023-04-06T23:20:36.884Z,10.73
2023-04-06T23:23:04.338Z,10.43
2023-04-06T23:25:31.837Z,9.43
2023-04-06T23:27:59.402Z,10.37
2023-04-06T23:30:26.826Z,10.43
2023-04-06T23:32:54.268Z,13.27
2023-04-06T23:35:21.591Z,12.13
2023-04-06T23:37:49.127Z,13.90
2023-04-06T23:40:16.846Z,13.27
2023-04-06T23:42:44.070Z,12.10
2023-04-06T23:45:11.563Z,11.13
2023-04-06T23:47:38.788Z,11.20
2023-04-06T23:50:06.560Z,11.93
2023-04-06T23:52:34.015Z,11.20
2023-04-06T23:55:01.445Z,11.00
2023-04-06T23:57:28.874Z,10.70
2023-04-06T23:59:58.892Z,10.73
